Terminal Aerodrome Forecast
Issued by NWS Bismarck, ND

Home | Current Version | Previous Version | Graphics & Text | Print | Product List | Glossary On
Versions: 1 2 3 4 5 6 7 8 9 10 11 12 13 14 15 16 17 18 19 20 21
000
FTUS43 KBIS 190520
TAFBIS
TAF
KBIS 190520Z 1906/2006 13005KT P6SM SKC
     FM191300 13005KT P6SM VCTS SCT090CB BKN200
      TEMPO 1914/1916 27020G30KT 3SM TSRA BKN060CB
     FM191700 08010KT P6SM SCT060
     FM200300 09005KT P6SM SKC=

USA.gov is the U.S. government's official web portal to all federal, state and local government web resources and services.